createdAt,value
2019-06-08T00:00:54.219Z,17.2
2019-06-08T00:01:55.700Z,17.3
2019-06-08T00:02:57.125Z,17.3
2019-06-08T00:03:58.790Z,17.3
2019-06-08T00:05:00.227Z,17.3
2019-06-08T00:06:01.628Z,17.2
2019-06-08T00:07:03.399Z,17.1
2019-06-08T00:08:05.350Z,17.1
2019-06-08T00:09:06.737Z,17.2
2019-06-08T00:10:08.248Z,17.1
2019-06-08T00:11:09.656Z,17.1
2019-06-08T00:12:11.061Z,17.3
2019-06-08T00:13:13.137Z,17.3
2019-06-08T00:14:15.084Z,17.3
2019-06-08T00:15:16.057Z,17.2
2019-06-08T00:16:17.410Z,17.3
2019-06-08T00:17:30.340Z,17.1
2019-06-08T00:18:19.619Z,17.1
2019-06-08T00:19:21.583Z,17.1
2019-06-08T00:20:23.692Z,17.2
2019-06-08T00:21:24.511Z,17.3
2019-06-08T00:22:25.907Z,17.2
2019-06-08T00:23:27.345Z,17.1
2019-06-08T00:24:28.834Z,17.1
2019-06-08T00:25:30.227Z,17.1
2019-06-08T00:26:31.646Z,17.1
2019-06-08T00:27:33.152Z,17.2
2019-06-08T00:28:34.554Z,17.2
2019-06-08T00:29:35.956Z,17.1
2019-06-08T00:30:39.161Z,17.1
2019-06-08T00:31:39.211Z,17.0
2019-06-08T00:32:40.620Z,17.0
2019-06-08T00:33:42.202Z,17.0
2019-06-08T00:34:43.598Z,17.0
2019-06-08T00:35:45.082Z,17.0
2019-06-08T00:36:46.479Z,17.0
2019-06-08T00:37:47.879Z,17.1
2019-06-08T00:38:49.400Z,17.1
2019-06-08T00:39:50.832Z,17.0
2019-06-08T00:40:52.609Z,16.9
2019-06-08T00:41:54.156Z,16.9
2019-06-08T00:42:55.533Z,17.0
2019-06-08T00:43:56.932Z,17.0
2019-06-08T00:44:58.506Z,17.0
2019-06-08T00:45:59.854Z,17.0
2019-06-08T00:47:01.250Z,17.0
2019-06-08T00:48:02.776Z,17.0
2019-06-08T00:49:04.174Z,17.0
2019-06-08T00:50:05.664Z,17.0
2019-06-08T00:51:07.093Z,17.0
2019-06-08T00:52:08.538Z,17.0
2019-06-08T00:53:09.941Z,17.0
2019-06-08T00:54:11.334Z,17.0
2019-06-08T00:55:12.877Z,17.1
2019-06-08T00:56:14.276Z,17.1
2019-06-08T00:57:15.696Z,17.1
2019-06-08T00:58:18.058Z,17.0
2019-06-08T00:59:19.931Z,16.9
2019-06-08T01:00:20.406Z,16.9
2019-06-08T01:01:24.312Z,17.0
2019-06-08T01:02:24.455Z,17.1
2019-06-08T01:03:25.606Z,17.0
2019-06-08T01:04:26.919Z,16.8
2019-06-08T01:05:27.390Z,17.0
2019-06-08T01:06:29.743Z,16.9
2019-06-08T01:07:30.725Z,16.9
2019-06-08T01:08:32.125Z,16.9
2019-06-08T01:09:33.530Z,16.8
2019-06-08T01:10:35.084Z,16.8
2019-06-08T01:11:36.481Z,16.8
2019-06-08T01:12:37.880Z,17.0
2019-06-08T01:13:39.399Z,16.9
2019-06-08T01:14:40.804Z,16.9
2019-06-08T01:15:42.209Z,16.9
2019-06-08T01:16:43.721Z,16.9
2019-06-08T01:17:59.023Z,16.8
2019-06-08T01:18:46.488Z,17.0
2019-06-08T01:19:48.043Z,17.0
2019-06-08T01:20:49.443Z,17.0
2019-06-08T01:21:50.925Z,17.0
2019-06-08T01:22:52.329Z,17.0
2019-06-08T01:23:53.811Z,17.1
2019-06-08T01:24:55.211Z,17.0
2019-06-08T01:25:56.685Z,17.0
2019-06-08T01:26:58.093Z,17.0
2019-06-08T01:27:59.570Z,17.0
2019-06-08T01:29:00.968Z,17.1
2019-06-08T01:30:02.480Z,17.0
2019-06-08T01:31:03.880Z,17.1
2019-06-08T01:32:05.339Z,17.0
2019-06-08T01:33:06.728Z,16.9
2019-06-08T01:34:08.214Z,16.9
2019-06-08T01:35:09.612Z,17.0
2019-06-08T01:36:11.092Z,16.9
2019-06-08T01:37:12.489Z,17.0
2019-06-08T01:38:13.981Z,16.9
2019-06-08T01:39:15.375Z,16.9
2019-06-08T01:40:16.857Z,16.7
2019-06-08T01:41:18.256Z,16.9
2019-06-08T01:42:19.742Z,16.9
2019-06-08T01:43:21.772Z,16.9
2019-06-08T01:44:23.521Z,16.7
2019-06-08T01:45:23.987Z,16.7
2019-06-08T01:46:25.900Z,16.8
2019-06-08T01:47:28.132Z,16.8
2019-06-08T01:48:28.377Z,16.8
2019-06-08T01:49:30.575Z,16.8
2019-06-08T01:50:32.666Z,16.9
2019-06-08T01:51:32.754Z,16.7
2019-06-08T01:52:34.138Z,16.8
2019-06-08T01:53:35.540Z,16.9
2019-06-08T01:54:37.023Z,16.8
2019-06-08T01:55:38.448Z,16.8
2019-06-08T01:56:39.902Z,16.7
2019-06-08T01:57:41.698Z,16.7
2019-06-08T01:58:43.196Z,16.7
2019-06-08T01:59:44.600Z,16.7
2019-06-08T02:00:45.994Z,16.8
2019-06-08T02:01:47.900Z,16.8
2019-06-08T02:02:49.674Z,16.7
2019-06-08T02:03:51.073Z,16.7
2019-06-08T02:04:52.652Z,16.8
2019-06-08T02:05:54.052Z,16.7
2019-06-08T02:06:55.457Z,16.6
2019-06-08T02:07:56.981Z,16.7
2019-06-08T02:08:58.382Z,16.6
2019-06-08T02:09:59.775Z,16.8
2019-06-08T02:11:01.295Z,16.7
2019-06-08T02:12:03.083Z,16.7
2019-06-08T02:13:08.267Z,16.8
2019-06-08T02:14:06.436Z,16.8
2019-06-08T02:15:07.840Z,16.8
2019-06-08T02:16:09.320Z,16.7
2019-06-08T02:17:10.727Z,16.9
2019-06-08T02:18:12.200Z,16.8
2019-06-08T02:19:13.599Z,16.7
2019-06-08T02:20:15.006Z,16.8
2019-06-08T02:21:16.897Z,16.9
2019-06-08T02:22:18.691Z,16.7
2019-06-08T02:23:20.079Z,16.7
2019-06-08T02:24:22.686Z,16.6
2019-06-08T02:25:24.087Z,16.7
2019-06-08T02:26:27.050Z,16.8
2019-06-08T02:27:27.236Z,16.8
2019-06-08T02:28:29.398Z,16.7
2019-06-08T02:29:30.063Z,16.7
2019-06-08T02:30:33.484Z,16.9
2019-06-08T02:31:34.768Z,16.8
2019-06-08T02:32:35.611Z,16.7
2019-06-08T02:33:37.171Z,16.8
2019-06-08T02:34:38.148Z,16.8
2019-06-08T02:35:39.115Z,16.8
2019-06-08T02:36:40.866Z,16.8
2019-06-08T02:37:42.024Z,16.8
2019-06-08T02:38:43.439Z,17.0
2019-06-08T02:39:44.838Z,16.9
2019-06-08T02:40:46.346Z,16.8
2019-06-08T02:41:47.745Z,16.8
2019-06-08T02:42:49.147Z,16.8
2019-06-08T02:43:50.666Z,16.9
2019-06-08T02:44:52.066Z,16.9
2019-06-08T02:45:53.843Z,16.8
2019-06-08T02:46:55.779Z,16.9
2019-06-08T02:47:57.553Z,16.8
2019-06-08T02:49:04.217Z,16.9
2019-06-08T02:50:00.332Z,16.7
2019-06-08T02:51:01.734Z,16.7
2019-06-08T02:52:03.242Z,16.9
2019-06-08T02:53:04.637Z,16.8
2019-06-08T02:54:06.133Z,16.9
2019-06-08T02:55:07.537Z,16.9
2019-06-08T02:56:08.983Z,16.9
2019-06-08T02:57:10.375Z,16.9
2019-06-08T02:58:11.857Z,16.8
2019-06-08T02:59:13.256Z,16.8
2019-06-08T03:00:14.660Z,16.8
2019-06-08T03:01:16.178Z,16.9
2019-06-08T03:02:17.579Z,16.8
2019-06-08T03:03:18.984Z,16.8
2019-06-08T03:04:20.517Z,16.7
2019-06-08T03:05:21.899Z,16.7
2019-06-08T03:06:23.297Z,16.9
2019-06-08T03:07:25.048Z,16.7
2019-06-08T03:08:26.446Z,16.7
2019-06-08T03:09:27.895Z,16.7
2019-06-08T03:10:30.714Z,16.7
2019-06-08T03:11:30.722Z,16.7
2019-06-08T03:12:32.976Z,16.7
2019-06-08T03:13:35.533Z,16.7
2019-06-08T03:14:35.529Z,16.6
2019-06-08T03:15:37.098Z,16.7
2019-06-08T03:16:40.421Z,16.8
2019-06-08T03:17:40.125Z,16.7
2019-06-08T03:18:42.359Z,16.8
2019-06-08T03:19:42.234Z,16.8
2019-06-08T03:20:43.643Z,16.7
2019-06-08T03:21:45.295Z,16.6
2019-06-08T03:22:46.700Z,16.6
2019-06-08T03:23:48.102Z,16.7
2019-06-08T03:24:49.831Z,16.6
2019-06-08T03:25:53.019Z,16.6
2019-06-08T03:26:52.604Z,16.6
2019-06-08T03:27:55.065Z,16.6
2019-06-08T03:28:56.846Z,16.6
2019-06-08T03:29:58.251Z,16.6
2019-06-08T03:31:00.821Z,16.7
2019-06-08T03:32:02.220Z,16.7
2019-06-08T03:33:03.805Z,16.7
2019-06-08T03:34:05.226Z,16.7
2019-06-08T03:35:07.290Z,16.7
2019-06-08T03:36:08.671Z,16.7
2019-06-08T03:37:10.453Z,16.6
2019-06-08T03:38:12.306Z,16.5
2019-06-08T03:39:13.707Z,16.4
2019-06-08T03:40:15.106Z,16.5
2019-06-08T03:41:16.697Z,16.6
2019-06-08T03:42:18.060Z,16.4
2019-06-08T03:43:19.459Z,16.6
2019-06-08T03:44:20.984Z,16.6
2019-06-08T03:45:22.382Z,16.5
2019-06-08T03:46:23.781Z,16.6
2019-06-08T03:47:25.302Z,16.6
2019-06-08T03:48:26.703Z,16.6
2019-06-08T03:49:40.977Z,16.7
2019-06-08T03:50:29.650Z,16.5
2019-06-08T03:51:35.053Z,16.6
2019-06-08T03:52:32.833Z,16.6
2019-06-08T03:53:35.671Z,16.6
2019-06-08T03:54:36.051Z,16.6
2019-06-08T03:55:37.949Z,16.4
2019-06-08T03:56:40.001Z,16.6
2019-06-08T03:57:40.469Z,16.6
2019-06-08T03:58:42.605Z,16.6
2019-06-08T03:59:45.552Z,16.6
2019-06-08T04:00:46.901Z,16.5
2019-06-08T04:01:46.590Z,16.5
2019-06-08T04:02:50.109Z,16.6
2019-06-08T04:03:50.286Z,16.6
2019-06-08T04:04:51.348Z,16.6
2019-06-08T04:05:53.351Z,16.6
2019-06-08T04:06:54.756Z,16.6
2019-06-08T04:07:56.466Z,16.7
2019-06-08T04:08:57.869Z,16.5
2019-06-08T04:09:59.552Z,16.5
2019-06-08T04:11:00.952Z,16.4
2019-06-08T04:12:02.357Z,16.4
2019-06-08T04:13:04.079Z,16.4
2019-06-08T04:14:05.482Z,16.5
2019-06-08T04:15:06.884Z,16.5
2019-06-08T04:16:08.601Z,16.3
2019-06-08T04:17:10.010Z,16.4
2019-06-08T04:18:11.406Z,16.3
2019-06-08T04:19:12.932Z,16.5
2019-06-08T04:20:14.328Z,16.4
2019-06-08T04:21:15.733Z,16.5
2019-06-08T04:22:17.269Z,16.5
2019-06-08T04:23:19.057Z,16.5
2019-06-08T04:24:20.743Z,16.4
2019-06-08T04:25:22.148Z,16.3
2019-06-08T04:26:23.550Z,16.5
2019-06-08T04:27:25.275Z,16.5
2019-06-08T04:28:27.165Z,16.5
2019-06-08T04:29:28.565Z,16.5
2019-06-08T04:30:30.208Z,16.4
2019-06-08T04:31:31.613Z,16.4
2019-06-08T04:32:33.010Z,16.5
2019-06-08T04:33:34.733Z,16.5
2019-06-08T04:34:36.133Z,16.4
2019-06-08T04:35:38.171Z,16.2
2019-06-08T04:36:39.121Z,16.4
2019-06-08T04:37:42.399Z,16.3
2019-06-08T04:38:43.156Z,16.5
2019-06-08T04:39:44.526Z,16.6
2019-06-08T04:40:45.968Z,16.4
2019-06-08T04:41:47.118Z,16.3
2019-06-08T04:42:49.364Z,16.3
2019-06-08T04:43:49.866Z,16.3
2019-06-08T04:44:50.711Z,16.3
2019-06-08T04:45:52.119Z,16.3
2019-06-08T04:46:53.665Z,16.4
2019-06-08T04:47:55.064Z,16.4
2019-06-08T04:48:56.466Z,16.3
2019-06-08T04:49:58.747Z,16.3
2019-06-08T04:51:00.147Z,16.3
2019-06-08T04:52:01.554Z,16.2
2019-06-08T04:53:03.132Z,16.2
2019-06-08T04:54:04.541Z,16.3
2019-06-08T04:55:06.118Z,16.4
2019-06-08T04:56:07.698Z,16.4
2019-06-08T04:57:09.061Z,16.3
2019-06-08T04:58:10.740Z,16.3
2019-06-08T04:59:12.138Z,16.3
2019-06-08T05:00:13.847Z,16.2
2019-06-08T05:01:15.227Z,16.3
2019-06-08T05:02:16.911Z,16.2
2019-06-08T05:03:18.316Z,16.2
2019-06-08T05:04:19.995Z,16.2
2019-06-08T05:05:21.452Z,16.2
2019-06-08T05:06:23.083Z,16.3
2019-06-08T05:07:24.484Z,16.2
2019-06-08T05:08:26.163Z,16.2
2019-06-08T05:09:27.575Z,16.3
2019-06-08T05:10:29.252Z,16.2
2019-06-08T05:11:30.660Z,16.3
2019-06-08T05:12:32.060Z,16.2
2019-06-08T05:13:33.783Z,16.3
2019-06-08T05:14:35.252Z,16.4
2019-06-08T05:15:36.657Z,16.3
2019-06-08T05:16:39.102Z,16.3
2019-06-08T05:17:41.052Z,16.4
2019-06-08T05:18:41.307Z,16.4
2019-06-08T05:19:43.479Z,16.3
2019-06-08T05:20:46.023Z,16.2
2019-06-08T05:21:45.501Z,16.3
2019-06-08T05:22:47.625Z,16.3
2019-06-08T05:23:57.565Z,16.4
2019-06-08T05:24:49.993Z,16.3
2019-06-08T05:25:51.119Z,16.4
2019-06-08T05:26:52.710Z,16.2
2019-06-08T05:27:54.119Z,16.3
2019-06-08T05:28:55.519Z,16.2
2019-06-08T05:29:57.237Z,16.1
2019-06-08T05:30:58.639Z,16.2
2019-06-08T05:32:00.331Z,16.2
2019-06-08T05:33:02.048Z,16.2
2019-06-08T05:34:03.412Z,16.1
2019-06-08T05:35:04.809Z,16.1
2019-06-08T05:36:06.493Z,16.2
2019-06-08T05:37:08.273Z,16.2
2019-06-08T05:38:09.701Z,16.2
2019-06-08T05:39:11.228Z,16.2
2019-06-08T05:40:12.633Z,16.2
2019-06-08T05:41:14.032Z,16.1
2019-06-08T05:42:15.780Z,16.1
2019-06-08T05:43:17.187Z,16.2
2019-06-08T05:44:19.226Z,16.2
2019-06-08T05:45:20.655Z,16.2
2019-06-08T05:46:22.331Z,16.2
2019-06-08T05:47:23.740Z,16.1
2019-06-08T05:48:25.483Z,16.2
2019-06-08T05:49:26.861Z,16.2
2019-06-08T05:50:28.709Z,16.1
2019-06-08T05:51:30.109Z,16.2
2019-06-08T05:52:31.794Z,16.1
2019-06-08T05:53:33.201Z,16.1
2019-06-08T05:54:34.880Z,16.2
2019-06-08T05:55:36.287Z,16.2
2019-06-08T05:56:37.966Z,16.2
2019-06-08T05:57:40.056Z,16.1
2019-06-08T05:58:41.836Z,16.2
2019-06-08T05:59:42.519Z,16.1
2019-06-08T06:00:44.231Z,16.1
2019-06-08T06:01:46.675Z,16.2
2019-06-08T06:02:46.977Z,16.2
2019-06-08T06:03:48.687Z,16.2
2019-06-08T06:04:52.101Z,16.2
2019-06-08T06:05:51.376Z,16.2
2019-06-08T06:06:52.988Z,16.2
2019-06-08T06:07:54.391Z,16.2
2019-06-08T06:08:55.797Z,16.2
2019-06-08T06:09:57.604Z,16.1
2019-06-08T06:10:59.006Z,16.0
2019-06-08T06:12:00.406Z,16.2
2019-06-08T06:13:02.040Z,16.2
2019-06-08T06:14:03.471Z,16.1
2019-06-08T06:15:04.878Z,16.1
2019-06-08T06:16:06.604Z,16.2
2019-06-08T06:17:08.038Z,16.2
2019-06-08T06:18:09.443Z,16.2
2019-06-08T06:19:11.110Z,16.0
2019-06-08T06:20:12.876Z,16.0
2019-06-08T06:21:14.586Z,15.9
2019-06-08T06:22:15.998Z,16.0
2019-06-08T06:23:17.404Z,16.0
2019-06-08T06:24:19.112Z,16.0
2019-06-08T06:25:20.513Z,16.1
2019-06-08T06:26:21.916Z,16.1
2019-06-08T06:27:23.645Z,16.1
2019-06-08T06:28:25.046Z,16.0
2019-06-08T06:29:26.723Z,15.9
2019-06-08T06:30:28.129Z,15.9
2019-06-08T06:31:29.807Z,16.0
2019-06-08T06:32:31.215Z,16.0
2019-06-08T06:33:32.617Z,16.0
2019-06-08T06:34:35.157Z,16.0
2019-06-08T06:35:36.561Z,16.1
2019-06-08T06:36:37.970Z,16.1
2019-06-08T06:37:39.683Z,15.9
2019-06-08T06:38:41.905Z,16.0
2019-06-08T06:39:43.909Z,16.1
2019-06-08T06:40:44.141Z,16.1
2019-06-08T06:41:45.966Z,16.2
2019-06-08T06:42:47.933Z,16.1
2019-06-08T06:43:50.308Z,16.2
2019-06-08T06:44:50.575Z,16.1
2019-06-08T06:45:52.190Z,16.0
2019-06-08T06:46:52.982Z,16.1
2019-06-08T06:47:54.528Z,16.2
2019-06-08T06:48:57.368Z,16.1
2019-06-08T06:49:59.014Z,15.9
2019-06-08T06:51:00.423Z,15.9
2019-06-08T06:52:02.099Z,16.0
2019-06-08T06:53:03.498Z,16.1
2019-06-08T06:54:04.911Z,16.0
2019-06-08T06:55:06.630Z,16.0
2019-06-08T06:56:08.033Z,15.9
2019-06-08T06:57:09.815Z,15.9
2019-06-08T06:58:11.359Z,15.9
2019-06-08T06:59:12.761Z,15.9
2019-06-08T07:00:14.444Z,15.9
2019-06-08T07:01:15.853Z,16.1
2019-06-08T07:02:17.526Z,16.1
2019-06-08T07:03:18.929Z,16.1
2019-06-08T07:04:20.331Z,16.2
2019-06-08T07:05:21.855Z,16.1
2019-06-08T07:06:23.254Z,16.1
2019-06-08T07:07:24.661Z,16.1
2019-06-08T07:08:26.173Z,16.0
2019-06-08T07:09:27.572Z,16.0
2019-06-08T07:10:28.973Z,15.9
2019-06-08T07:11:30.506Z,16.1
2019-06-08T07:12:31.904Z,16.2
2019-06-08T07:13:33.298Z,16.0
2019-06-08T07:14:35.665Z,16.0
2019-06-08T07:15:41.863Z,16.1
2019-06-08T07:16:38.724Z,16.2
2019-06-08T07:17:40.127Z,16.0
2019-06-08T07:18:41.561Z,16.0
2019-06-08T07:19:43.244Z,16.0
2019-06-08T07:20:46.022Z,16.2
2019-06-08T07:21:46.109Z,16.2
2019-06-08T07:22:48.096Z,16.2
2019-06-08T07:23:49.523Z,16.2
2019-06-08T07:24:50.456Z,16.2
2019-06-08T07:25:52.859Z,16.3
2019-06-08T07:26:54.529Z,16.2
2019-06-08T07:27:55.144Z,16.2
2019-06-08T07:28:56.416Z,16.4
2019-06-08T07:29:58.941Z,16.4
2019-06-08T07:30:59.300Z,16.3
2019-06-08T07:32:00.716Z,16.4
2019-06-08T07:33:02.385Z,16.4
2019-06-08T07:34:03.789Z,16.6
2019-06-08T07:35:05.195Z,16.4
2019-06-08T07:36:06.908Z,16.5
2019-06-08T07:37:08.310Z,16.3
2019-06-08T07:38:09.748Z,16.3
2019-06-08T07:39:11.595Z,16.5
2019-06-08T07:40:13.027Z,16.6
2019-06-08T07:41:14.435Z,16.7
2019-06-08T07:42:16.020Z,16.6
2019-06-08T07:43:17.425Z,16.7
2019-06-08T07:44:19.210Z,16.7
2019-06-08T07:45:20.898Z,16.5
2019-06-08T07:46:22.302Z,16.6
2019-06-08T07:47:23.981Z,16.7
2019-06-08T07:48:25.386Z,16.8
2019-06-08T07:49:26.791Z,16.8
2019-06-08T07:50:28.302Z,16.7
2019-06-08T07:51:29.706Z,16.7
2019-06-08T07:52:31.111Z,16.5
2019-06-08T07:53:32.624Z,16.4
2019-06-08T07:54:34.031Z,16.6
2019-06-08T07:55:35.492Z,16.7
2019-06-08T07:56:36.945Z,16.6
2019-06-08T07:57:38.356Z,16.4
2019-06-08T07:58:39.767Z,16.5
2019-06-08T07:59:41.565Z,16.6
2019-06-08T08:00:42.969Z,16.4
2019-06-08T08:01:44.557Z,16.5
2019-06-08T08:02:45.982Z,16.3
2019-06-08T08:03:47.953Z,16.4
2019-06-08T08:04:48.886Z,16.4
2019-06-08T08:05:50.391Z,16.3
2019-06-08T08:06:52.444Z,16.3
2019-06-08T08:07:54.525Z,16.2
2019-06-08T08:08:54.825Z,16.2
2019-06-08T08:09:57.003Z,16.4
2019-06-08T08:10:58.645Z,16.4
2019-06-08T08:11:59.593Z,16.3
2019-06-08T08:13:00.405Z,16.4
2019-06-08T08:14:01.863Z,16.3
2019-06-08T08:15:03.215Z,16.3
2019-06-08T08:16:04.736Z,16.3
2019-06-08T08:17:06.144Z,16.4
2019-06-08T08:18:07.574Z,16.3
2019-06-08T08:19:09.252Z,16.3
2019-06-08T08:20:10.652Z,16.5
2019-06-08T08:21:21.289Z,16.7
2019-06-08T08:22:25.829Z,16.7
2019-06-08T08:23:17.232Z,16.8
2019-06-08T08:24:17.339Z,17.3
2019-06-08T08:25:18.225Z,17.4
2019-06-08T08:26:19.262Z,17.3
2019-06-08T08:27:20.667Z,17.2
2019-06-08T08:28:22.219Z,17.2
2019-06-08T08:29:24.006Z,17.4
2019-06-08T08:30:25.408Z,17.4
2019-06-08T08:31:27.823Z,17.6
2019-06-08T08:32:28.424Z,17.6
2019-06-08T08:33:29.691Z,17.5
2019-06-08T08:34:31.272Z,17.3
2019-06-08T08:35:32.675Z,17.5
2019-06-08T08:36:34.270Z,17.8
2019-06-08T08:37:37.905Z,17.7
2019-06-08T08:38:38.083Z,17.6
2019-06-08T08:39:38.608Z,17.5
2019-06-08T08:40:40.010Z,17.3
2019-06-08T08:41:41.544Z,17.3
2019-06-08T08:42:42.910Z,17.3
2019-06-08T08:43:44.313Z,17.4
2019-06-08T08:44:45.875Z,17.2
2019-06-08T08:45:47.696Z,17.3
2019-06-08T08:46:50.050Z,17.1
2019-06-08T08:47:50.861Z,17.1
2019-06-08T08:48:52.424Z,17.2
2019-06-08T08:49:54.003Z,17.0
2019-06-08T08:50:54.518Z,17.0
2019-06-08T08:51:56.160Z,17.1
2019-06-08T08:53:00.338Z,17.0
2019-06-08T08:54:03.470Z,16.9
2019-06-08T08:55:00.933Z,16.8
2019-06-08T08:56:02.536Z,16.7
2019-06-08T08:57:05.121Z,16.8
2019-06-08T08:58:04.471Z,16.6
2019-06-08T08:59:07.763Z,16.7
2019-06-08T09:00:08.526Z,16.6
2019-06-08T09:01:08.926Z,16.7
2019-06-08T09:02:11.465Z,16.8
2019-06-08T09:03:24.632Z,16.9
2019-06-08T09:04:13.175Z,17.0
2019-06-08T09:05:14.684Z,17.1
2019-06-08T09:06:18.007Z,17.1
2019-06-08T09:07:18.359Z,17.1
2019-06-08T09:08:18.936Z,17.1
2019-06-08T09:09:21.698Z,17.1
2019-06-08T09:10:21.816Z,17.2
2019-06-08T09:11:23.253Z,17.2
2019-06-08T09:12:24.783Z,17.3
2019-06-08T09:13:27.896Z,17.3
2019-06-08T09:14:28.087Z,17.6
2019-06-08T09:15:31.400Z,17.4
2019-06-08T09:16:30.461Z,17.3
2019-06-08T09:17:32.349Z,17.2
2019-06-08T09:18:33.754Z,17.3
2019-06-08T09:19:37.985Z,17.2
2019-06-08T09:20:38.045Z,17.2
2019-06-08T09:21:38.769Z,17.2
2019-06-08T09:22:52.977Z,17.2
2019-06-08T09:23:41.772Z,17.3
2019-06-08T09:24:43.178Z,17.2
2019-06-08T09:25:44.741Z,17.2
2019-06-08T09:26:47.616Z,17.0
2019-06-08T09:27:48.189Z,17.1
2019-06-08T09:28:49.351Z,17.0
2019-06-08T09:29:53.269Z,17.1
2019-06-08T09:30:52.289Z,17.2
2019-06-08T09:31:53.939Z,17.2
2019-06-08T09:32:57.152Z,17.3
2019-06-08T09:34:05.429Z,17.2
2019-06-08T09:35:02.336Z,17.1
2019-06-08T09:36:02.394Z,17.3
2019-06-08T09:37:02.871Z,17.2
2019-06-08T09:38:04.585Z,17.2
2019-06-08T09:39:05.323Z,17.1
2019-06-08T09:40:05.717Z,17.3
2019-06-08T09:41:08.811Z,17.1
2019-06-08T09:42:09.034Z,17.1
2019-06-08T09:43:13.082Z,17.2
2019-06-08T09:44:11.904Z,17.3
2019-06-08T09:45:12.861Z,17.3
2019-06-08T09:46:14.248Z,17.3
2019-06-08T09:47:17.940Z,17.4
2019-06-08T09:48:18.230Z,17.3
2019-06-08T09:49:18.813Z,17.3
2019-06-08T09:50:19.759Z,17.2
2019-06-08T09:51:21.351Z,17.3
2019-06-08T09:52:22.763Z,17.2
2019-06-08T09:53:34.172Z,17.2
2019-06-08T09:54:28.143Z,17.1
2019-06-08T09:55:28.687Z,17.1
2019-06-08T09:56:28.589Z,17.2
2019-06-08T09:57:29.959Z,17.1
2019-06-08T09:58:31.637Z,17.1
2019-06-08T09:59:33.040Z,17.1
2019-06-08T10:00:34.445Z,17.2
2019-06-08T10:01:38.256Z,17.1
2019-06-08T10:02:37.327Z,17.1
2019-06-08T10:03:39.196Z,17.3
2019-06-08T10:04:40.279Z,17.4
2019-06-08T10:05:41.685Z,17.4
2019-06-08T10:06:43.364Z,17.4
2019-06-08T10:07:45.150Z,17.4
2019-06-08T10:08:48.061Z,17.4
2019-06-08T10:09:50.029Z,17.4
2019-06-08T10:10:49.393Z,17.4
2019-06-08T10:11:50.978Z,17.5
2019-06-08T10:12:52.381Z,17.5
2019-06-08T10:13:54.465Z,17.6
2019-06-08T10:14:56.651Z,17.5
2019-06-08T10:16:00.008Z,17.4
2019-06-08T10:17:00.683Z,17.5
2019-06-08T10:18:00.908Z,17.4
2019-06-08T10:19:04.762Z,17.6
2019-06-08T10:20:04.492Z,17.6
2019-06-08T10:21:05.981Z,17.5
2019-06-08T10:22:08.432Z,17.4
2019-06-08T10:23:26.802Z,17.5
2019-06-08T10:24:09.841Z,17.6
2019-06-08T10:25:11.556Z,17.7
2019-06-08T10:26:13.035Z,17.8
2019-06-08T10:27:14.504Z,17.8
2019-06-08T10:28:19.139Z,17.9
2019-06-08T10:29:18.480Z,18.0
2019-06-08T10:30:19.231Z,17.9
2019-06-08T10:31:33.193Z,18.0
2019-06-08T10:32:22.232Z,18.0
2019-06-08T10:33:24.305Z,17.8
2019-06-08T10:34:27.303Z,17.8
2019-06-08T10:35:28.322Z,17.8
2019-06-08T10:36:28.632Z,17.9
2019-06-08T10:37:30.274Z,17.9
2019-06-08T10:38:31.694Z,17.9
2019-06-08T10:39:34.204Z,17.9
2019-06-08T10:40:35.595Z,18.0
2019-06-08T10:41:38.850Z,17.8
2019-06-08T10:42:40.176Z,17.8
2019-06-08T10:43:40.429Z,17.8
2019-06-08T10:44:42.277Z,17.9
2019-06-08T10:45:43.685Z,17.9
2019-06-08T10:46:45.321Z,17.8
2019-06-08T10:47:47.925Z,17.8
2019-06-08T10:48:48.649Z,17.9
2019-06-08T10:49:49.805Z,17.9
2019-06-08T10:50:51.670Z,17.9
2019-06-08T10:51:53.104Z,18.1
2019-06-08T10:52:55.813Z,18.0
2019-06-08T10:53:57.899Z,18.0
2019-06-08T10:55:01.565Z,17.9
2019-06-08T10:56:01.689Z,18.0
2019-06-08T10:57:05.088Z,17.8
2019-06-08T10:58:06.351Z,18.0
2019-06-08T10:59:09.852Z,17.9
2019-06-08T11:00:13.719Z,18.0
2019-06-08T11:01:12.118Z,18.0
2019-06-08T11:02:13.939Z,18.0
2019-06-08T11:03:13.159Z,17.9
2019-06-08T11:04:14.727Z,17.8
2019-06-08T11:05:17.910Z,17.9
2019-06-08T11:06:18.863Z,18.0
2019-06-08T11:07:19.034Z,18.0
2019-06-08T11:08:20.454Z,18.1
2019-06-08T11:09:21.977Z,18.4
2019-06-08T11:10:23.953Z,18.4
2019-06-08T11:11:25.424Z,18.6
2019-06-08T11:12:28.353Z,18.4
2019-06-08T11:13:28.468Z,18.5
2019-06-08T11:14:29.880Z,18.6
2019-06-08T11:15:31.322Z,18.3
2019-06-08T11:16:33.021Z,18.3
2019-06-08T11:17:34.436Z,18.1
2019-06-08T11:18:36.456Z,18.1
2019-06-08T11:19:37.931Z,17.9
2019-06-08T11:20:39.492Z,18.0
2019-06-08T11:21:40.926Z,18.1
2019-06-08T11:22:42.496Z,18.2
2019-06-08T11:23:43.901Z,18.2
2019-06-08T11:24:45.540Z,18.2
2019-06-08T11:25:48.788Z,18.1
2019-06-08T11:26:48.659Z,18.1
2019-06-08T11:27:50.066Z,18.3
2019-06-08T11:28:51.724Z,18.2
2019-06-08T11:29:53.584Z,18.2
2019-06-08T11:30:55.233Z,18.2
2019-06-08T11:31:58.268Z,18.1
2019-06-08T11:32:59.770Z,18.2
2019-06-08T11:34:00.347Z,18.2
2019-06-08T11:35:01.942Z,18.3
2019-06-08T11:36:05.906Z,18.5
2019-06-08T11:37:04.758Z,18.9
2019-06-08T11:38:06.704Z,18.9
2019-06-08T11:39:09.093Z,18.8
2019-06-08T11:40:11.021Z,18.6
2019-06-08T11:41:12.134Z,18.5
2019-06-08T11:42:12.979Z,18.3
2019-06-08T11:43:12.732Z,18.3
2019-06-08T11:44:14.840Z,18.2
2019-06-08T11:45:17.555Z,18.3
2019-06-08T11:46:20.897Z,18.3
2019-06-08T11:47:18.602Z,18.3
2019-06-08T11:48:20.102Z,18.4
2019-06-08T11:49:21.541Z,18.6
2019-06-08T11:50:23.003Z,18.7
2019-06-08T11:51:24.627Z,18.8
2019-06-08T11:52:28.353Z,18.7
2019-06-08T11:53:28.832Z,18.7
2019-06-08T11:54:36.471Z,18.5
2019-06-08T11:55:30.355Z,18.7
2019-06-08T11:56:31.767Z,18.5
2019-06-08T11:57:33.282Z,18.4
2019-06-08T11:58:34.731Z,18.4
2019-06-08T11:59:37.515Z,18.3
2019-06-08T12:00:37.911Z,18.4
2019-06-08T12:01:38.995Z,18.3
2019-06-08T12:02:41.371Z,18.3
2019-06-08T12:03:41.914Z,18.3
2019-06-08T12:04:43.322Z,18.3
2019-06-08T12:05:44.728Z,18.3
2019-06-08T12:06:48.264Z,18.3
2019-06-08T12:07:48.035Z,18.3
2019-06-08T12:08:48.971Z,18.4
2019-06-08T12:09:50.555Z,18.4
2019-06-08T12:10:51.960Z,18.5
2019-06-08T12:11:53.359Z,18.4
2019-06-08T12:12:57.323Z,18.5
2019-06-08T12:13:58.352Z,18.4
2019-06-08T12:14:58.319Z,18.6
2019-06-08T12:15:59.199Z,18.5
2019-06-08T12:17:01.344Z,18.6
2019-06-08T12:18:03.374Z,18.6
2019-06-08T12:19:04.387Z,18.6
2019-06-08T12:20:05.530Z,18.7
2019-06-08T12:21:08.617Z,18.6
2019-06-08T12:22:08.759Z,18.7
2019-06-08T12:23:10.028Z,18.7
2019-06-08T12:24:12.358Z,18.7
2019-06-08T12:25:12.507Z,18.7
2019-06-08T12:26:14.561Z,19.0
2019-06-08T12:27:29.141Z,19.2
2019-06-08T12:28:17.840Z,19.4
2019-06-08T12:29:18.898Z,19.6
2019-06-08T12:30:25.632Z,19.7
2019-06-08T12:31:22.568Z,19.6
2019-06-08T12:32:23.261Z,19.3
2019-06-08T12:33:24.678Z,19.2
2019-06-08T12:34:27.974Z,19.2
2019-06-08T12:35:28.363Z,19.1
2019-06-08T12:36:30.618Z,19.2
2019-06-08T12:37:30.346Z,19.2
2019-06-08T12:38:34.457Z,19.3
2019-06-08T12:39:33.279Z,19.4
2019-06-08T12:40:34.692Z,19.4
2019-06-08T12:41:37.730Z,19.7
2019-06-08T12:42:38.131Z,19.6
2019-06-08T12:43:39.128Z,19.6
2019-06-08T12:44:43.462Z,19.4
2019-06-08T12:45:41.999Z,19.6
2019-06-08T12:46:43.402Z,19.8
2019-06-08T12:47:44.809Z,19.7
2019-06-08T12:48:46.318Z,19.5
2019-06-08T12:49:48.419Z,19.5
2019-06-08T12:50:49.101Z,19.4
2019-06-08T12:51:51.765Z,19.3
2019-06-08T12:52:52.012Z,19.3
2019-06-08T12:53:53.417Z,19.4
2019-06-08T12:55:03.470Z,19.4
2019-06-08T12:55:57.921Z,19.3
2019-06-08T12:56:57.976Z,19.5
2019-06-08T12:57:59.487Z,19.4
2019-06-08T12:59:01.018Z,19.4
2019-06-08T13:00:02.422Z,19.3
2019-06-08T13:01:04.023Z,19.4
2019-06-08T13:02:05.436Z,19.5
2019-06-08T13:03:08.621Z,19.7
2019-06-08T13:04:09.453Z,19.8
2019-06-08T13:05:13.317Z,19.7
2019-06-08T13:06:12.488Z,19.8
2019-06-08T13:07:13.133Z,19.7
2019-06-08T13:08:15.287Z,19.8
2019-06-08T13:09:16.709Z,19.8
2019-06-08T13:10:20.105Z,19.7
2019-06-08T13:11:18.965Z,19.8
2019-06-08T13:12:21.623Z,19.8
2019-06-08T13:13:24.464Z,19.8
2019-06-08T13:14:22.950Z,19.8
2019-06-08T13:15:24.359Z,19.9
2019-06-08T13:16:28.249Z,19.8
2019-06-08T13:17:27.978Z,19.9
2019-06-08T13:18:28.965Z,19.8
2019-06-08T13:19:30.405Z,19.9
2019-06-08T13:20:32.003Z,19.9
2019-06-08T13:21:35.247Z,20.0
2019-06-08T13:22:34.827Z,20.1
2019-06-08T13:23:38.313Z,20.2
2019-06-08T13:24:37.860Z,20.1
2019-06-08T13:25:43.453Z,20.1
2019-06-08T13:26:40.643Z,20.0
2019-06-08T13:27:42.052Z,20.1
2019-06-08T13:28:43.458Z,20.0
2019-06-08T13:29:44.960Z,20.0
2019-06-08T13:30:47.858Z,20.0
2019-06-08T13:31:47.758Z,19.9
2019-06-08T13:32:49.283Z,19.8
2019-06-08T13:33:50.714Z,19.8
2019-06-08T13:34:52.127Z,19.7
2019-06-08T13:35:53.645Z,19.8
2019-06-08T13:36:55.049Z,19.8
2019-06-08T13:37:57.484Z,19.9
2019-06-08T13:38:58.157Z,20.1